Craig, CO

7:47 PM MDT on October 21, 2014 (GMT -0600)
Craig airport | Change Station
CLOSE
Current Station
Personal Weather Station
Location: Craig, CO
Elevation: 6207 ft
Nearby Weather Stations

Elev 6207 ft 40.49 °N, 107.51 °W | Updated 16 minutes ago

Partly Cloudy
Partly Cloudy
53.0 °F
Feels Like 53.0 °F
N
0.0
Wind Variable Wind from SSW
Gusts 0.0 mph

Today
High -- | Low -- °F
--% Chance of Precip.
Yesterday
High -- | Low -- °F
Precip. -- in
7:27 AM 6:21 PM
Waning Crescent, 3% visible
Pressure 30.00 in
Visibility 10.0 miles
Clouds Few 6500 ft
Few 8000 ft
Scattered Clouds 10000 ft
Dew Point 40 °F
Humidity 61%
Rainfall 0.00 in
Snow Depth Not available.
UV 0 out of 12
Pollen 1.90 out of 12
Air Quality Not available.
Flu Activity Sporadic
SPECI KCAG 220107Z AUTO 23003KT 10SM FEW065 FEW080 SCT100 13/04 A3000 RMK AO2 LTG DSNT NE T01330039 $

More Conditions Fewer Conditions

Pressure 30.00 in
Visibility 10.0 miles
Clouds Few 6500 ft
Few 8000 ft
Scattered Clouds 10000 ft
Dew Point 40 °F
Humidity 61%
Rainfall 0.00 in
Snow Depth Not available.
UV 0 out of 12
Pollen 1.90 out of 12
Air Quality Not available.
Flu Activity Sporadic
SPECI KCAG 220107Z AUTO 23003KT 10SM FEW065 FEW080 SCT100 13/04 A3000 RMK AO2 LTG DSNT NE T01330039 $

More Conditions Fewer Conditions

10-Day Weather Forecast

Almanac

Astronomy

Oct. 21, 2014 Rise Set
Actual Time 7:27 AM MDT 6:21 PM MDT
Civil Twilight 7:00 AM MDT 6:48 PM MDT
Nautical Twilight 6:28 AM MDT 7:20 PM MDT
Astronomical Twilight 5:56 AM MDT 7:52 PM MDT
Moon 5:14 AM MDT (10/21) 5:17 PM MDT (10/21)
Length of Visible Light 11h 48m
Length of Day
10h 53m
Tomorrow will be 2m 31s shorter.
Waning Crescent, 3% of the Moon is Illuminated
Today
Waning Crescent
Oct 23
New
Oct 30
First Quarter
Nov 6
Full
Nov 14
Last Quarter

Today's Extremes

State Highs State Lows

Community

WunderPhotos

Upload Photos

1,763,843 photos uploaded!

Nearby

Snow Depth

Station Depth Elevation
Elk River 0 in 8700 ft
Dry Lake 0 in 8400 ft
Trapper Lake 0 in 9700 ft
Rabbit Ears 0 in 9400 ft
Tower 0 in 10500 ft

Earthquake Activity

City Distance Mag. Time & Date
No recent earthquake activity has been reported nearby.
Minimum magnitude displayed is 2.5.

Coastal Water Temperatures

Place Temperature
No Stations Reporting

Nearby Weather Stations